createdAt,value
2019-02-11T00:01:48.782Z,5.03
2019-02-11T00:07:43.770Z,4.93
2019-02-11T00:13:38.784Z,5.32
2019-02-11T00:19:33.789Z,4.44
2019-02-11T00:25:28.854Z,5.66
2019-02-11T00:31:23.805Z,5.02
2019-02-11T00:37:18.790Z,5.93
2019-02-11T00:43:19.074Z,4.49
2019-02-11T00:49:08.799Z,4.83
2019-02-11T00:55:03.840Z,5.32
2019-02-11T01:00:58.829Z,5.69
2019-02-11T01:06:53.826Z,4.38
2019-02-11T01:12:48.856Z,5.15
2019-02-11T01:18:43.833Z,5.27
2019-02-11T01:24:38.839Z,4.2
2019-02-11T01:30:33.833Z,5.44
2019-02-11T01:36:28.819Z,4.2
2019-02-11T01:42:23.923Z,4.18
2019-02-11T01:48:18.851Z,3.9
2019-02-11T01:54:13.902Z,4.2
2019-02-11T02:00:08.859Z,3.73
2019-02-11T02:06:03.872Z,4.22
2019-02-11T02:11:58.847Z,4.08
2019-02-11T02:17:53.841Z,3.56
2019-02-11T02:23:48.843Z,2.88
2019-02-11T02:29:43.850Z,3.11
2019-02-11T02:35:38.870Z,3.02
2019-02-11T02:41:33.866Z,2.85
2019-02-11T02:47:28.839Z,2.7
2019-02-11T02:53:23.850Z,3.13
2019-02-11T02:59:18.851Z,3
2019-02-11T03:05:13.873Z,2.61
2019-02-11T03:11:08.880Z,2.65
2019-02-11T03:17:03.876Z,3.29
2019-02-11T03:22:58.902Z,2.85
2019-02-11T03:28:53.908Z,3.12
2019-02-11T03:34:48.920Z,3.6
2019-02-11T03:40:43.932Z,3.77
2019-02-11T03:46:38.882Z,3.29
2019-02-11T03:52:33.897Z,3.23
2019-02-11T03:58:28.887Z,3.21
2019-02-11T04:04:23.918Z,3.14
2019-02-11T04:10:18.898Z,3.23
2019-02-11T04:16:13.910Z,3.12
2019-02-11T04:22:08.950Z,3.87
2019-02-11T04:28:03.940Z,4.08
2019-02-11T04:33:58.953Z,4.6
2019-02-11T04:39:53.930Z,3.68
2019-02-11T04:45:48.907Z,4.26
2019-02-11T04:51:43.947Z,4.11
2019-02-11T04:57:38.920Z,5.43
2019-02-11T05:03:33.966Z,5.33
2019-02-11T05:09:28.947Z,4.8
2019-02-11T05:15:23.962Z,3.86
2019-02-11T05:21:18.968Z,5.88
2019-02-11T05:27:13.944Z,3.13
2019-02-11T09:18:09.912Z,12
2019-02-11T09:18:09.932Z,3.61
2019-02-11T09:18:09.955Z,12
2019-02-11T09:18:09.998Z,12
2019-02-11T09:18:10.006Z,12
2019-02-11T09:18:10.013Z,12
2019-02-11T09:18:10.051Z,12
2019-02-11T09:18:10.058Z,12
2019-02-11T09:18:10.112Z,12
2019-02-11T09:18:10.118Z,12
2019-02-11T09:18:10.154Z,12
2019-02-11T09:18:10.166Z,12
2019-02-11T09:18:10.196Z,12
2019-02-11T09:18:10.201Z,12
2019-02-11T09:18:10.263Z,12
2019-02-11T09:18:10.263Z,12
2019-02-11T09:18:10.309Z,12
2019-02-11T09:18:10.322Z,12
2019-02-11T09:18:10.362Z,12
2019-02-11T09:18:10.383Z,12
2019-02-11T09:18:10.407Z,12
2019-02-11T09:18:10.423Z,12
2019-02-11T09:18:10.451Z,12
2019-02-11T09:18:10.461Z,12
2019-02-11T09:18:10.507Z,12
2019-02-11T09:18:10.534Z,12
2019-02-11T09:18:10.549Z,12
2019-02-11T09:18:10.568Z,12
2019-02-11T09:18:10.594Z,12
2019-02-11T09:18:10.625Z,12
2019-02-11T09:18:10.652Z,12
2019-02-11T09:18:10.667Z,12
2019-02-11T09:18:10.719Z,12
2019-02-11T09:18:10.743Z,12
2019-02-11T09:18:10.761Z,12
2019-02-11T09:18:10.786Z,12
2019-02-11T09:18:10.808Z,12
2019-02-11T09:18:10.848Z,12
2019-02-11T09:18:10.862Z,12
2019-02-11T09:23:54.054Z,9.74
2019-02-11T09:29:49.095Z,11.47
2019-02-11T09:35:44.110Z,8.48
2019-02-11T09:41:39.089Z,10.84
2019-02-11T09:47:34.115Z,8.61
2019-02-11T09:53:29.079Z,8.82
2019-02-11T09:59:24.090Z,8.58
2019-02-11T10:05:19.085Z,7.6
2019-02-11T10:11:14.106Z,8.77
2019-02-11T10:17:09.099Z,10.16
2019-02-11T10:23:04.088Z,11.11
2019-02-11T10:28:59.142Z,11.66
2019-02-11T10:34:54.088Z,11.25
2019-02-11T10:40:49.100Z,17.39
2019-02-11T10:46:44.104Z,11.09
2019-02-11T10:52:39.110Z,9
2019-02-11T10:58:34.105Z,7.22
2019-02-11T11:04:29.175Z,4.57
2019-02-11T11:10:24.127Z,3.94
2019-02-11T11:16:19.115Z,5.47
2019-02-11T11:22:14.170Z,5.26
2019-02-11T11:28:09.126Z,3.7
2019-02-11T11:34:04.135Z,5.21
2019-02-11T11:39:59.190Z,2.73
2019-02-11T11:45:54.208Z,2.31
2019-02-11T11:51:49.153Z,1.87
2019-02-11T11:57:44.164Z,1.5
2019-02-11T12:03:39.163Z,1.68
2019-02-11T12:09:34.160Z,1.31
2019-02-11T12:15:29.188Z,1.29
2019-02-11T12:21:24.165Z,0.78
2019-02-11T12:27:19.152Z,2.3
2019-02-11T12:33:14.169Z,0.65
2019-02-11T12:39:09.186Z,0.53
2019-02-11T12:45:04.199Z,1.63
2019-02-11T12:50:59.170Z,2.32
2019-02-11T12:56:54.202Z,0.64
2019-02-11T13:02:49.260Z,1.95
2019-02-11T13:08:44.254Z,3.3
2019-02-11T13:14:39.183Z,2.23
2019-02-11T13:20:34.238Z,2.65
2019-02-11T13:26:29.263Z,1.73
2019-02-11T13:32:24.191Z,1.78
2019-02-11T13:38:19.230Z,3.87
2019-02-11T13:44:14.219Z,3.15
2019-02-11T13:50:09.241Z,1.79
2019-02-11T13:56:05.388Z,0.82
2019-02-11T14:01:59.220Z,1.3
2019-02-11T14:07:54.249Z,1.55
2019-02-11T14:14:01.104Z,1.21
2019-02-11T14:19:44.255Z,0.56
2019-02-11T14:25:43.235Z,0.47
2019-02-11T14:31:34.259Z,3.18
2019-02-11T14:37:29.272Z,0.62
2019-02-11T14:43:24.224Z,0.33
2019-02-11T14:49:19.264Z,1
2019-02-11T14:55:14.258Z,2.15
2019-02-11T15:01:09.280Z,2.16
2019-02-11T15:07:04.237Z,1.34
2019-02-11T15:12:59.260Z,1.22
2019-02-11T15:18:54.253Z,2.04
2019-02-11T15:24:49.275Z,1.3
2019-02-11T15:30:44.266Z,1.6
2019-02-11T15:36:39.266Z,2.96
2019-02-11T15:42:34.262Z,1.54
2019-02-11T15:48:29.271Z,0.83
2019-02-11T15:54:24.316Z,1.96
2019-02-11T16:00:19.301Z,3.83
2019-02-11T16:06:14.288Z,3.92
2019-02-11T16:12:09.325Z,3.63
2019-02-11T16:18:04.290Z,2.68
2019-02-11T16:23:59.285Z,5.64
2019-02-11T16:29:54.290Z,6.95
2019-02-11T16:35:49.369Z,6.18
2019-02-11T16:41:44.285Z,3.32
2019-02-11T16:47:39.290Z,2.5
2019-02-11T16:53:34.481Z,2.2
2019-02-11T16:59:29.326Z,1.26
2019-02-11T17:05:24.319Z,1.94
2019-02-11T17:11:19.309Z,1.44
2019-02-11T17:17:14.367Z,1.93
2019-02-11T17:23:09.321Z,4.4
2019-02-11T17:29:04.348Z,6.47
2019-02-11T17:34:59.340Z,8.93
2019-02-11T17:40:54.311Z,3.92
2019-02-11T17:46:49.327Z,4.64
2019-02-11T17:52:44.318Z,7.12
2019-02-11T17:58:39.325Z,4.26
2019-02-11T18:04:34.348Z,5.02
2019-02-11T18:10:29.356Z,8.9
2019-02-11T18:16:24.571Z,15.7
2019-02-11T18:22:19.393Z,13.75
2019-02-11T18:28:14.349Z,10.28
2019-02-11T18:34:09.417Z,8.38
2019-02-11T18:40:04.337Z,6.58
2019-02-11T18:45:59.377Z,9.82
2019-02-11T18:51:54.363Z,18.31
2019-02-11T18:57:49.360Z,12.52
2019-02-11T19:03:44.377Z,8.15
2019-02-11T19:09:39.389Z,11.46
2019-02-11T19:15:34.385Z,12.49
2019-02-11T19:21:29.368Z,12.35
2019-02-11T19:27:24.381Z,12.47
2019-02-11T19:33:19.389Z,9.12
2019-02-11T19:39:14.385Z,7.75
2019-02-11T19:45:09.390Z,9.57
2019-02-11T19:51:04.445Z,9.7
2019-02-11T19:56:59.411Z,6.58
2019-02-11T20:02:54.460Z,10.12
2019-02-11T20:08:49.406Z,5.86
2019-02-11T20:14:44.403Z,2.42
2019-02-11T20:20:39.432Z,1.51
2019-02-11T20:26:34.461Z,1.56
2019-02-11T20:32:29.431Z,2.43
2019-02-11T20:38:24.449Z,3.82
2019-02-11T20:44:19.463Z,3.28
2019-02-11T20:50:14.453Z,17.41
2019-02-11T20:56:09.495Z,21
2019-02-11T21:02:04.440Z,3.26
2019-02-11T21:07:59.472Z,2.87
2019-02-11T21:13:54.467Z,1.42
2019-02-11T21:19:49.451Z,1.89
2019-02-11T21:25:44.481Z,2.19
2019-02-11T21:31:39.453Z,3.08
2019-02-11T21:37:34.447Z,3.3
2019-02-11T21:43:29.499Z,5.65
2019-02-11T21:49:24.507Z,5.73
2019-02-11T21:55:19.462Z,3.13
2019-02-11T22:01:14.475Z,4.21
2019-02-11T22:07:09.460Z,4.96
2019-02-11T22:13:04.476Z,4.6
2019-02-11T22:18:59.481Z,7.22
2019-02-11T22:24:56.325Z,8.55
2019-02-11T22:30:49.505Z,13.76
2019-02-11T22:36:44.470Z,10.47
2019-02-11T22:42:39.523Z,6.01
2019-02-11T22:48:34.499Z,6.71
2019-02-11T22:54:29.508Z,3.12
2019-02-11T23:00:24.484Z,3.03
2019-02-11T23:06:19.489Z,2.88
2019-02-11T23:12:14.507Z,2.91
2019-02-11T23:18:09.553Z,2.5
2019-02-11T23:24:04.521Z,5.08
2019-02-11T23:29:59.551Z,2.76
2019-02-11T23:35:54.510Z,2.29
2019-02-11T23:41:49.520Z,2.21
2019-02-11T23:47:44.579Z,1.8
2019-02-11T23:53:39.552Z,1.81
2019-02-11T23:59:34.515Z,1.96
